Wilson, Michigan
Current Conditions -  °F | °C
As of 9:35 AM on Saturday 25 Oct 2014 (Local Time) from KESC Reporting Station
Clear Clear  
Wind Chill: 55°   Ceiling: Unl
Heat Index: 55°   Visibility: 10mi
Dew Point: 39°   Wind: 15mph
Humidity: 54%   Direction: 300°WNW
Pressure: 29.71"   Gusts: 22mph
Location:  45.71°N, 87.44°W
Report Text: KESC 251435Z AUTO 30013G19KT 10SM CLR 13/04 A2971 RMK AO1 P0001
Loading
Personal Weather Stations






























Interactive Weather Map
Tropical Storm Tracking
New forecast layout! Learn more

10-Day Weather Forecast

Advertisements
Track Severe Weather on mobile